Time;durP1;ratioP1;P1;durP2;ratioP2;P2;SDS_P1;SDS_P2;PMS_P1;PMS_P2;Temp;Humidity;BMP_temperature;BMP_pressure;BME280_temperature;BME280_humidity;BME280_pressure;Samples;Min_cycle;Max_cycle;Signal;HPM_P1;HPM_P2
2021/03/03 00:00:55;;;;;;;26.90;19.00;;;3.80;31.80;;;;;;5096659;28;20184;-73
2021/03/03 00:03:21;;;;;;;18.33;16.53;;;3.80;31.60;;;;;;5097473;28;20177;-72
2021/03/03 00:05:46;;;;;;;22.83;16.90;;;3.80;31.90;;;;;;5096708;28;20238;-73
2021/03/03 00:08:12;;;;;;;27.03;20.27;;;3.80;31.70;;;;;;5093852;28;20185;-72
2021/03/03 00:10:37;;;;;;;21.57;19.37;;;3.80;31.70;;;;;;5093605;28;20181;-73
2021/03/03 00:13:03;;;;;;;29.63;18.23;;;3.70;31.90;;;;;;5094553;28;20185;-73
2021/03/03 00:15:29;;;;;;;33.87;19.47;;;3.70;31.90;;;;;;5093963;28;20181;-73
2021/03/03 00:17:54;;;;;;;21.10;18.10;;;3.60;31.80;;;;;;5093751;28;20461;-74
2021/03/03 00:20:20;;;;;;;18.60;16.50;;;3.60;32.30;;;;;;5093204;28;20222;-72
2021/03/03 00:22:45;;;;;;;19.37;16.83;;;3.60;32.20;;;;;;5093805;28;20189;-73
2021/03/03 00:25:11;;;;;;;27.20;17.40;;;3.60;32.30;;;;;;5094017;28;20581;-73
2021/03/03 00:27:36;;;;;;;19.33;17.37;;;3.70;32.50;;;;;;5075255;28;20582;-73
2021/03/03 00:30:03;;;;;;;21.97;18.50;;;3.70;32.90;;;;;;5092685;28;20182;-74
2021/03/03 00:32:28;;;;;;;23.88;17.80;;;3.70;33.20;;;;;;5093464;28;20429;-73
2021/03/03 00:34:54;;;;;;;19.43;17.07;;;3.70;33.10;;;;;;5093302;28;20219;-72
2021/03/03 00:37:19;;;;;;;20.80;18.80;;;3.60;33.20;;;;;;5093317;28;20204;-73
2021/03/03 00:39:45;;;;;;;20.57;17.37;;;3.70;33.20;;;;;;5092448;28;20185;-73
2021/03/03 00:42:11;;;;;;;19.57;17.47;;;3.70;33.30;;;;;;5093033;28;20184;-73
2021/03/03 00:44:37;;;;;;;20.77;18.77;;;3.70;33.30;;;;;;5093124;28;20219;-73
2021/03/03 00:47:02;;;;;;;20.23;17.43;;;3.70;33.30;;;;;;5093160;28;20241;-73
2021/03/03 00:49:28;;;;;;;19.67;17.33;;;3.70;33.30;;;;;;5092387;28;20282;-73
2021/03/03 00:51:53;;;;;;;17.77;15.87;;;3.70;33.30;;;;;;5092959;28;20177;-73
2021/03/03 00:54:19;;;;;;;20.60;17.90;;;3.70;32.80;;;;;;5074980;28;20189;-73
2021/03/03 00:56:45;;;;;;;26.53;16.73;;;3.70;32.70;;;;;;5092897;28;20549;-72
2021/03/03 00:59:10;;;;;;;17.93;15.03;;;3.70;32.80;;;;;;5092145;28;20434;-73
2021/03/03 01:01:36;;;;;;;22.03;16.23;;;3.70;32.80;;;;;;5092826;28;20177;-74
2021/03/03 01:04:02;;;;;;;18.50;16.20;;;3.60;32.60;;;;;;5074693;28;20599;-72
2021/03/03 01:06:27;;;;;;;21.03;18.83;;;3.60;32.80;;;;;;5092719;28;20205;-73
2021/03/03 01:08:53;;;;;;;17.53;15.70;;;3.50;32.90;;;;;;5092487;28;20239;-72
2021/03/03 01:11:18;;;;;;;18.67;16.73;;;3.50;33.20;;;;;;5092662;28;20550;-72
2021/03/03 01:13:44;;;;;;;19.03;17.13;;;3.50;33.30;;;;;;5092606;28;20201;-73
2021/03/03 01:16:09;;;;;;;22.87;17.13;;;3.50;33.40;;;;;;5092486;28;20177;-73
2021/03/03 01:18:35;;;;;;;18.00;16.30;;;3.50;33.60;;;;;;5091707;28;20646;-74
2021/03/03 01:21:01;;;;;;;17.33;15.50;;;3.60;33.60;;;;;;5091895;28;20178;-73
2021/03/03 01:23:26;;;;;;;20.87;16.67;;;3.60;33.80;;;;;;5092541;28;20256;-73
2021/03/03 01:25:52;;;;;;;18.67;16.40;;;3.50;33.90;;;;;;5092261;28;20247;-73
2021/03/03 01:28:17;;;;;;;19.20;16.90;;;3.60;34.10;;;;;;5092039;28;20189;-73
2021/03/03 01:30:43;;;;;;;22.83;16.83;;;3.50;34.00;;;;;;5073376;28;20545;-73
2021/03/03 01:33:08;;;;;;;20.50;16.20;;;3.60;34.00;;;;;;5092139;28;20182;-73
2021/03/03 01:35:34;;;;;;;17.80;16.17;;;3.60;34.00;;;;;;5092219;28;20165;-74
2021/03/03 01:38:00;;;;;;;21.77;16.83;;;3.60;33.80;;;;;;5092268;28;20687;-73
2021/03/03 01:40:25;;;;;;;16.60;14.93;;;3.60;33.70;;;;;;5091667;28;20526;-73
2021/03/03 01:42:54;;;;;;;18.27;16.47;;;3.60;33.60;;;;;;5092307;28;20557;-73
2021/03/03 01:45:20;;;;;;;15.77;14.30;;;3.60;33.40;;;;;;5092116;28;20188;-73
2021/03/03 01:47:46;;;;;;;19.08;17.13;;;3.50;33.30;;;;;;5091842;28;20212;-73
2021/03/03 01:50:12;;;;;;;16.10;14.43;;;3.60;33.40;;;;;;5091404;28;20246;-73
2021/03/03 01:52:42;;;;;;;16.27;14.80;;;3.60;33.30;;;;;;5073722;28;20181;-73
2021/03/03 01:55:08;;;;;;;15.68;14.02;;;3.60;33.30;;;;;;5091950;28;20484;-73
2021/03/03 01:57:34;;;;;;;18.80;15.37;;;3.60;33.20;;;;;;5091657;28;20205;-73
2021/03/03 02:00:00;;;;;;;21.40;15.07;;;3.60;33.00;;;;;;5091145;28;20464;-74
2021/03/03 02:02:26;;;;;;;16.17;14.50;;;3.60;32.80;;;;;;5091749;28;20650;-72
2021/03/03 02:04:55;;;;;;;15.80;14.07;;;3.60;32.90;;;;;;5091620;28;20175;-73
2021/03/03 02:07:46;;;;;;;17.58;15.52;;;3.50;32.90;;;;;;5091429;28;20763;-73
2021/03/03 02:10:26;;;;;;;16.25;14.75;;;3.50;33.20;;;;;;5090995;28;20173;-73
2021/03/03 02:13:02;;;;;;;16.38;14.60;;;3.50;33.10;;;;;;5091549;28;20192;-73
2021/03/03 02:15:30;;;;;;;19.55;16.60;;;3.50;33.90;;;;;;5091396;28;20169;-73
2021/03/03 02:17:57;;;;;;;15.27;13.82;;;3.50;32.90;;;;;;5091078;28;20215;-72
2021/03/03 02:20:27;;;;;;;17.27;15.57;;;3.50;33.00;;;;;;5072395;28;20181;-73
2021/03/03 02:23:13;;;;;;;16.30;14.13;;;3.40;33.70;;;;;;5091466;28;20165;-73
2021/03/03 02:25:42;;;;;;;29.25;14.80;;;3.40;32.90;;;;;;5091334;28;20456;-72
2021/03/03 02:28:10;;;;;;;19.15;14.23;;;3.40;33.00;;;;;;5091156;28;20287;-73
2021/03/03 02:30:39;;;;;;;15.13;13.25;;;3.50;32.90;;;;;;5090532;28;20627;-74
2021/03/03 02:33:06;;;;;;;17.25;15.38;;;3.50;32.90;;;;;;5091300;28;20173;-73
2021/03/03 02:35:32;;;;;;;16.65;14.65;;;3.40;32.90;;;;;;5090963;28;20177;-73
2021/03/03 02:37:58;;;;;;;18.33;15.13;;;3.50;33.00;;;;;;5091030;28;20613;-73
2021/03/03 02:40:25;;;;;;;16.58;14.85;;;3.40;32.80;;;;;;5090358;28;20634;-74
2021/03/03 02:42:51;;;;;;;22.65;15.02;;;3.40;32.90;;;;;;5090840;28;20177;-73
2021/03/03 02:45:19;;;;;;;22.20;16.33;;;3.30;33.00;;;;;;5090924;28;20184;-72
2021/03/03 02:47:46;;;;;;;20.92;15.73;;;3.40;33.10;;;;;;5090750;28;20209;-73
2021/03/03 02:50:12;;;;;;;19.65;15.07;;;3.40;33.20;;;;;;5090352;28;20222;-73
2021/03/03 02:52:57;;;;;;;15.75;14.35;;;3.30;33.20;;;;;;5090822;28;20238;-73
2021/03/03 02:55:26;;;;;;;18.77;15.15;;;3.30;33.40;;;;;;5072495;28;20240;-73
2021/03/03 02:57:55;;;;;;;19.00;15.48;;;3.30;33.50;;;;;;5090628;28;20201;-73
2021/03/03 03:00:23;;;;;;;18.98;15.80;;;3.30;33.90;;;;;;5090096;28;20204;-72
2021/03/03 03:02:55;;;;;;;16.13;14.65;;;3.30;34.00;;;;;;5090687;28;20184;-72
2021/03/03 03:05:22;;;;;;;19.50;15.60;;;3.30;34.40;;;;;;5072527;28;20232;-73
2021/03/03 03:07:52;;;;;;;15.85;14.15;;;3.30;34.70;;;;;;5090473;28;20231;-72
2021/03/03 03:10:19;;;;;;;21.50;16.70;;;3.20;35.00;;;;;;5089978;28;20177;-72
2021/03/03 03:12:49;;;;;;;22.08;17.05;;;3.20;35.40;;;;;;5090663;28;20821;-73
2021/03/03 03:15:17;;;;;;;19.92;16.50;;;3.20;35.60;;;;;;5090423;28;20550;-73
2021/03/03 03:17:45;;;;;;;19.05;17.15;;;3.20;35.80;;;;;;5090275;28;20201;-73
2021/03/03 03:20:14;;;;;;;17.20;15.45;;;3.20;35.70;;;;;;5090095;28;20174;-72
2021/03/03 03:22:40;;;;;;;23.73;18.65;;;3.20;35.50;;;;;;5090432;28;20179;-73
2021/03/03 03:25:07;;;;;;;18.07;16.27;;;3.20;35.50;;;;;;5090582;28;20177;-74
2021/03/03 03:27:33;;;;;;;16.77;14.52;;;3.20;35.70;;;;;;5090146;28;20473;-73
2021/03/03 03:30:00;;;;;;;20.23;18.07;;;3.20;35.80;;;;;;5089815;28;20179;-74
2021/03/03 03:32:26;;;;;;;25.42;18.25;;;3.20;35.40;;;;;;5090150;28;20197;-72
2021/03/03 03:34:53;;;;;;;17.83;16.17;;;3.10;35.40;;;;;;5090917;28;20189;-73
2021/03/03 03:37:21;;;;;;;16.85;15.20;;;3.10;36.20;;;;;;5090164;28;20184;-73
2021/03/03 03:39:46;;;;;;;21.77;19.35;;;3.00;36.50;;;;;;5089581;28;20221;-74
2021/03/03 03:42:15;;;;;;;17.30;15.17;;;3.00;36.40;;;;;;5075142;28;20593;-73
2021/03/03 03:44:41;;;;;;;18.75;16.85;;;3.00;36.40;;;;;;5094177;28;20174;-72
2021/03/03 03:47:07;;;;;;;19.30;17.30;;;3.00;36.40;;;;;;5094016;28;20244;-74
2021/03/03 03:49:33;;;;;;;21.55;16.70;;;3.00;36.40;;;;;;5093354;28;20192;-73
2021/03/03 03:51:59;;;;;;;20.37;17.10;;;3.00;36.40;;;;;;5094463;28;20711;-73
2021/03/03 03:54:24;;;;;;;24.27;18.03;;;3.10;36.50;;;;;;5094361;28;20181;-72
2021/03/03 03:56:50;;;;;;;21.23;17.77;;;3.00;36.40;;;;;;5093978;28;20669;-73
2021/03/03 03:59:15;;;;;;;18.57;16.43;;;3.00;36.40;;;;;;5093245;28;20197;-73
2021/03/03 04:01:41;;;;;;;18.77;16.97;;;3.00;36.20;;;;;;5093853;28;20184;-73
2021/03/03 04:04:06;;;;;;;31.40;16.87;;;3.00;36.40;;;;;;5093690;28;20199;-71
2021/03/03 04:06:32;;;;;;;18.93;16.60;;;3.00;36.40;;;;;;5093673;28;20205;-71
2021/03/03 04:08:57;;;;;;;20.03;17.90;;;3.00;36.20;;;;;;5093082;28;20224;-72
2021/03/03 04:11:23;;;;;;;16.00;14.50;;;3.00;36.40;;;;;;5093557;28;20181;-72
2021/03/03 04:13:49;;;;;;;18.33;15.70;;;3.00;36.40;;;;;;5093427;28;20169;-71
2021/03/03 04:16:14;;;;;;;22.10;15.50;;;3.10;36.60;;;;;;5093944;28;20830;-72
2021/03/03 04:18:40;;;;;;;18.63;16.90;;;3.00;36.40;;;;;;5093040;28;20205;-71
2021/03/03 04:21:05;;;;;;;23.20;16.70;;;3.00;36.50;;;;;;5092931;28;20185;-73
2021/03/03 04:23:31;;;;;;;25.93;16.70;;;2.90;36.40;;;;;;5093254;28;20177;-72
2021/03/03 04:25:56;;;;;;;16.90;15.37;;;2.90;36.40;;;;;;5093431;28;20184;-71
2021/03/03 04:28:22;;;;;;;16.83;15.23;;;2.90;36.40;;;;;;5093181;28;20224;-72
2021/03/03 04:30:47;;;;;;;30.17;16.87;;;3.00;36.50;;;;;;5092685;28;20219;-72
2021/03/03 04:33:14;;;;;;;16.97;15.27;;;3.00;36.40;;;;;;5093243;28;20524;-72
2021/03/03 04:35:40;;;;;;;17.38;15.57;;;2.90;36.40;;;;;;5093050;28;20165;-72
2021/03/03 04:38:06;;;;;;;17.65;15.98;;;2.90;36.40;;;;;;5092859;28;20197;-71
2021/03/03 04:40:32;;;;;;;18.05;15.18;;;2.80;36.30;;;;;;5092307;28;20184;-72
2021/03/03 04:42:57;;;;;;;17.50;14.00;;;2.80;36.30;;;;;;5092952;28;20180;-72
2021/03/03 04:45:23;;;;;;;21.10;17.50;;;2.80;36.30;;;;;;5093183;28;20176;-72
2021/03/03 04:47:48;;;;;;;23.70;17.93;;;2.70;36.20;;;;;;5093135;28;20617;-72
2021/03/03 04:50:14;;;;;;;17.83;15.90;;;2.70;36.20;;;;;;5073936;28;20230;-72
2021/03/03 04:52:39;;;;;;;22.20;16.77;;;2.70;36.20;;;;;;5091922;28;20820;-72
2021/03/03 04:55:05;;;;;;;23.10;17.63;;;2.70;36.20;;;;;;5093271;28;20173;-72
2021/03/03 04:57:31;;;;;;;18.05;16.38;;;2.70;36.20;;;;;;5092761;28;20201;-72
2021/03/03 04:59:57;;;;;;;18.37;15.70;;;2.70;36.30;;;;;;5092179;28;20641;-72
2021/03/03 05:02:23;;;;;;;20.70;16.80;;;2.70;37.00;;;;;;5074371;28;20419;-72
2021/03/03 05:04:49;;;;;;;17.85;16.02;;;2.60;37.20;;;;;;5092665;28;20422;-72
2021/03/03 05:07:14;;;;;;;19.90;17.80;;;2.70;37.30;;;;;;5092422;28;20207;-72
2021/03/03 05:09:40;;;;;;;17.93;16.17;;;2.60;37.00;;;;;;5092016;28;20176;-71
2021/03/03 05:12:07;;;;;;;18.73;16.80;;;2.60;37.00;;;;;;5074222;28;20638;-72
2021/03/03 05:14:33;;;;;;;19.98;17.98;;;2.70;36.70;;;;;;5092924;28;20265;-72
2021/03/03 05:16:58;;;;;;;21.80;17.50;;;2.70;36.80;;;;;;5092627;28;20212;-72
2021/03/03 05:19:24;;;;;;;19.30;17.00;;;2.70;36.50;;;;;;5092635;28;20213;-72
2021/03/03 05:21:49;;;;;;;20.50;17.90;;;2.70;36.20;;;;;;5092942;28;20209;-72
2021/03/03 05:24:15;;;;;;;16.87;15.27;;;2.70;36.90;;;;;;5092880;28;20248;-72
2021/03/03 05:26:41;;;;;;;19.00;16.92;;;2.70;36.70;;;;;;5092384;28;20406;-71
2021/03/03 05:29:06;;;;;;;18.87;17.20;;;2.70;36.50;;;;;;5091944;28;20212;-73
2021/03/03 05:31:32;;;;;;;20.63;15.90;;;2.70;36.30;;;;;;5093060;28;20166;-72
2021/03/03 05:33:58;;;;;;;16.43;14.83;;;2.70;36.40;;;;;;5092482;28;20170;-72
2021/03/03 05:36:23;;;;;;;17.70;16.00;;;2.70;36.70;;;;;;5092455;28;20188;-72
2021/03/03 05:38:49;;;;;;;24.97;16.93;;;2.80;36.30;;;;;;5091869;28;20428;-70
2021/03/03 05:41:14;;;;;;;19.30;17.40;;;2.80;36.30;;;;;;5092698;28;20184;-71
2021/03/03 05:43:40;;;;;;;16.37;14.33;;;2.70;36.40;;;;;;5092311;28;20548;-73
2021/03/03 05:46:06;;;;;;;19.83;15.70;;;2.70;36.60;;;;;;5092297;28;20177;-72
2021/03/03 05:48:41;;;;;;;19.03;16.53;;;2.70;36.60;;;;;;5092052;28;20543;-72
2021/03/03 05:51:08;;;;;;;17.42;14.55;;;2.70;36.50;;;;;;5091613;28;20256;-72
2021/03/03 05:53:34;;;;;;;22.48;16.10;;;2.70;36.60;;;;;;5092029;28;20172;-72
2021/03/03 05:56:02;;;;;;;18.80;14.88;;;2.70;36.20;;;;;;5093224;28;20170;-72
2021/03/03 05:58:30;;;;;;;18.88;15.18;;;2.70;36.60;;;;;;5093984;28;20232;-72
2021/03/03 06:00:57;;;;;;;22.52;16.80;;;2.70;36.40;;;;;;5073986;28;20181;-72
2021/03/03 06:03:24;;;;;;;17.55;15.85;;;2.70;36.20;;;;;;5091634;28;20184;-72
2021/03/03 06:05:50;;;;;;;20.13;17.75;;;2.70;36.20;;;;;;5073496;28;20200;-72
2021/03/03 06:08:17;;;;;;;19.42;16.30;;;2.60;36.50;;;;;;5091943;28;20207;-72
2021/03/03 06:10:43;;;;;;;17.75;16.05;;;2.60;37.00;;;;;;5090981;28;20212;-72
2021/03/03 06:13:09;;;;;;;17.83;15.90;;;2.60;37.00;;;;;;5091951;28;20185;-73
2021/03/03 06:15:34;;;;;;;16.87;14.43;;;2.70;36.90;;;;;;5091684;28;20522;-72
2021/03/03 06:18:01;;;;;;;20.63;15.17;;;2.70;36.70;;;;;;5091422;28;20564;-70
2021/03/03 06:20:27;;;;;;;21.30;15.95;;;2.80;36.30;;;;;;5090920;28;20180;-72
2021/03/03 06:22:53;;;;;;;16.70;15.13;;;2.80;36.30;;;;;;5091368;28;20172;-73
2021/03/03 06:25:22;;;;;;;16.57;14.83;;;2.80;36.30;;;;;;5091435;28;20545;-72
2021/03/03 06:27:48;;;;;;;17.52;15.38;;;2.80;36.30;;;;;;5091809;28;20243;-74
2021/03/03 06:30:15;;;;;;;20.08;18.00;;;2.90;36.40;;;;;;5091039;28;20192;-69
2021/03/03 06:32:55;;;;;;;18.92;15.30;;;2.90;36.40;;;;;;5091127;28;20181;-71
2021/03/03 06:35:32;;;;;;;19.40;16.15;;;2.90;36.40;;;;;;5073366;28;20230;-71
2021/03/03 06:37:59;;;;;;;16.85;15.15;;;3.00;36.50;;;;;;5091714;28;20196;-71
2021/03/03 06:40:25;;;;;;;24.10;15.50;;;3.00;36.50;;;;;;5091371;28;20184;-71
2021/03/03 06:42:51;;;;;;;18.50;16.65;;;3.10;36.50;;;;;;5091339;28;20180;-72
2021/03/03 06:45:30;;;;;;;19.10;16.07;;;3.20;36.60;;;;;;5091277;28;20169;-72
2021/03/03 06:47:57;;;;;;;19.25;15.18;;;3.20;36.20;;;;;;5090872;28;20572;-73
2021/03/03 06:50:36;;;;;;;20.42;15.20;;;3.30;35.80;;;;;;5090397;28;20180;-72
2021/03/03 06:53:02;;;;;;;15.93;14.32;;;3.40;35.30;;;;;;5090575;28;20252;-73
2021/03/03 06:55:48;;;;;;;20.10;16.40;;;3.50;34.60;;;;;;5090814;28;20259;-71
2021/03/03 06:58:24;;;;;;;37.95;32.90;;;3.60;34.10;;;;;;5090817;28;20196;-72
2021/03/03 07:00:50;;;;;;;25.77;23.17;;;3.70;33.90;;;;;;5090339;28;20176;-72
2021/03/03 07:03:28;;;;;;;23.33;20.30;;;3.70;34.00;;;;;;5090672;28;20181;-71
2021/03/03 07:05:54;;;;;;;26.08;18.48;;;3.70;34.10;;;;;;5090747;28;20173;-72
2021/03/03 07:08:21;;;;;;;20.35;18.40;;;3.80;34.10;;;;;;5090875;28;20384;-72
2021/03/03 07:10:46;;;;;;;21.73;18.10;;;4.00;34.10;;;;;;5090397;28;20176;-72
2021/03/03 07:13:12;;;;;;;17.87;16.17;;;4.10;33.70;;;;;;5090752;28;20169;-72
2021/03/03 07:15:37;;;;;;;17.53;15.77;;;4.20;33.00;;;;;;5091053;28;20411;-73
2021/03/03 07:18:03;;;;;;;18.50;16.57;;;4.30;32.40;;;;;;5094567;28;20209;-73
2021/03/03 07:20:29;;;;;;;19.37;16.50;;;4.40;32.10;;;;;;5094228;28;20188;-73
2021/03/03 07:22:57;;;;;;;20.03;15.50;;;4.40;31.40;;;;;;5094995;28;20177;-74
2021/03/03 07:25:23;;;;;;;23.05;18.67;;;;;;;;;;5094434;28;20264;-73
2021/03/03 07:27:49;;;;;;;34.38;18.25;;;4.70;30.00;;;;;;5094385;28;20357;-72
2021/03/03 07:30:23;;;;;;;19.80;14.60;;;4.70;29.90;;;;;;5093919;28;20173;-72
2021/03/03 07:32:49;;;;;;;22.10;14.35;;;4.70;29.50;;;;;;5094270;28;20169;-72
2021/03/03 07:35:16;;;;;;;27.92;15.98;;;4.80;29.60;;;;;;5094265;28;20575;-72
2021/03/03 07:37:52;;;;;;;16.58;14.10;;;4.90;29.50;;;;;;5094347;28;20577;-73
2021/03/03 07:40:18;;;;;;;17.00;15.20;;;5.00;29.70;;;;;;5093665;28;20242;-72
2021/03/03 07:43:00;;;;;;;22.30;15.60;;;5.00;29.70;;;;;;5094138;28;20181;-71
2021/03/03 07:45:38;;;;;;;37.55;18.42;;;5.10;29.60;;;;;;5094077;28;20188;-73
2021/03/03 07:48:06;;;;;;;25.40;18.27;;;5.10;29.20;;;;;;5075817;28;20212;-72
2021/03/03 07:50:32;;;;;;;22.80;19.73;;;5.20;29.20;;;;;;5093439;28;20227;-73
2021/03/03 07:52:58;;;;;;;27.20;18.25;;;5.30;29.30;;;;;;5094047;28;20182;-73
2021/03/03 07:55:24;;;;;;;23.87;19.33;;;5.50;28.70;;;;;;5094343;28;20170;-73
2021/03/03 07:57:52;;;;;;;19.67;16.90;;;5.60;28.80;;;;;;5093746;28;20430;-72
2021/03/03 08:00:25;;;;;;;18.40;16.70;;;5.70;27.90;;;;;;5093269;28;20185;-72
2021/03/03 08:02:53;;;;;;;21.67;19.35;;;5.90;27.80;;;;;;5094173;28;20256;-73
2021/03/03 08:05:36;;;;;;;25.48;18.88;;;6.00;27.30;;;;;;5093920;28;20171;-72
2021/03/03 08:08:16;;;;;;;21.80;16.63;;;6.10;26.60;;;;;;5093461;28;20210;-71
2021/03/03 08:10:42;;;;;;;17.52;15.65;;;6.20;26.50;;;;;;5093015;28;20437;-71
2021/03/03 08:13:12;;;;;;;21.47;16.40;;;6.40;26.10;;;;;;5093426;28;20537;-74
2021/03/03 08:15:42;;;;;;;17.57;15.67;;;6.40;25.40;;;;;;5093665;28;20463;-72
2021/03/03 08:18:14;;;;;;;18.90;16.97;;;6.50;25.20;;;;;;5093646;28;20446;-71
2021/03/03 08:20:54;;;;;;;17.60;15.90;;;6.60;24.60;;;;;;5092737;28;20930;-72
2021/03/03 08:23:35;;;;;;;20.97;17.33;;;6.70;24.50;;;;;;5075139;28;20417;-71
2021/03/03 08:26:04;;;;;;;20.70;17.20;;;6.80;24.80;;;;;;5093163;28;20476;-72
2021/03/03 08:28:47;;;;;;;19.80;16.77;;;7.00;24.50;;;;;;5091854;28;20440;-71
2021/03/03 08:31:15;;;;;;;19.13;15.83;;;7.10;24.30;;;;;;5093019;28;20412;-72
2021/03/03 08:33:50;;;;;;;20.00;15.90;;;7.20;23.40;;;;;;5093125;28;20851;-71
2021/03/03 08:36:21;;;;;;;18.23;16.50;;;7.20;23.90;;;;;;5093146;28;20440;-71
2021/03/03 08:38:56;;;;;;;18.70;16.90;;;7.30;24.10;;;;;;5092522;28;20856;-75
2021/03/03 08:41:30;;;;;;;20.70;18.53;;;7.40;24.40;;;;;;5093093;28;20411;-72
2021/03/03 08:44:28;;;;;;;19.40;17.53;;;7.50;24.00;;;;;;5092984;28;20803;-71
2021/03/03 08:46:54;;;;;;;17.63;16.03;;;7.50;23.80;;;;;;5069624;28;21172;-71
2021/03/03 08:49:19;;;;;;;18.13;16.37;;;7.50;24.70;;;;;;5092316;28;20527;-72
2021/03/03 08:51:47;;;;;;;23.67;19.33;;;7.50;23.50;;;;;;5093038;28;20215;-73
2021/03/03 08:54:14;;;;;;;25.30;19.77;;;7.60;23.70;;;;;;5092993;28;20532;-71
2021/03/03 08:56:54;;;;;;;23.57;17.20;;;7.70;23.70;;;;;;5074826;28;20419;-73
2021/03/03 08:59:28;;;;;;;19.50;16.47;;;7.80;22.90;;;;;;5092020;28;20435;-73
2021/03/03 09:02:18;;;;;;;20.70;17.47;;;7.90;23.00;;;;;;5092623;28;20410;-74
2021/03/03 09:04:52;;;;;;;18.70;16.70;;;8.00;22.80;;;;;;5092788;28;20415;-73
2021/03/03 09:07:25;;;;;;;31.23;17.00;;;8.10;22.10;;;;;;5092707;28;21006;-72
2021/03/03 09:09:56;;;;;;;22.83;17.50;;;8.20;22.60;;;;;;5091976;28;20414;-74
2021/03/03 09:12:29;;;;;;;21.80;19.57;;;8.20;22.20;;;;;;5074401;28;20423;-73
2021/03/03 09:14:57;;;;;;;17.97;15.73;;;8.30;22.00;;;;;;5092526;28;20490;-72
2021/03/03 09:17:29;;;;;;;19.37;17.67;;;8.40;21.10;;;;;;5092218;28;20420;-72
2021/03/03 09:19:59;;;;;;;19.40;17.57;;;8.40;20.10;;;;;;5091723;28;20434;-72
2021/03/03 09:22:28;;;;;;;18.93;17.27;;;8.50;19.90;;;;;;5092481;28;20468;-73
2021/03/03 09:25:11;;;;;;;22.20;20.30;;;8.50;19.90;;;;;;5092266;28;20412;-72
2021/03/03 09:27:37;;;;;;;25.40;19.17;;;8.60;19.60;;;;;;5092505;28;20919;-73
2021/03/03 09:30:03;;;;;;;21.37;18.00;;;8.70;19.80;;;;;;5091492;28;20443;-72
2021/03/03 09:32:29;;;;;;;17.53;15.70;;;8.80;19.10;;;;;;5091936;28;20407;-72
2021/03/03 09:35:06;;;;;;;20.63;18.60;;;8.80;19.20;;;;;;5092052;28;20433;-70
2021/03/03 09:37:37;;;;;;;25.80;19.53;;;8.90;19.30;;;;;;5091835;28;20203;-70
2021/03/03 09:40:05;;;;;;;27.60;18.27;;;8.90;18.50;;;;;;5090795;28;20408;-71
2021/03/03 09:42:37;;;;;;;20.30;18.40;;;8.90;19.10;;;;;;5091704;28;20975;-72
2021/03/03 09:45:04;;;;;;;17.43;15.83;;;8.90;18.40;;;;;;5092306;28;20435;-73
2021/03/03 09:47:32;;;;;;;21.23;16.23;;;9.00;18.40;;;;;;5092146;28;20455;-73
2021/03/03 09:50:00;;;;;;;25.07;17.40;;;9.10;19.10;;;;;;5091402;28;20426;-73
2021/03/03 09:52:35;;;;;;;21.30;16.87;;;9.20;18.60;;;;;;5092330;28;20404;-72
2021/03/03 09:55:00;;;;;;;18.43;16.57;;;9.30;18.20;;;;;;5092444;28;20894;-73
2021/03/03 09:57:26;;;;;;;17.70;16.00;;;9.50;17.10;;;;;;5093125;28;20461;-72
2021/03/03 09:59:55;;;;;;;18.30;16.87;;;9.60;16.30;;;;;;5091926;28;20277;-74
2021/03/03 10:02:25;;;;;;;18.10;16.30;;;9.80;16.10;;;;;;5092558;28;20182;-73
2021/03/03 10:04:52;;;;;;;19.83;18.13;;;10.00;15.10;;;;;;5092586;28;20785;-73
2021/03/03 10:07:21;;;;;;;18.13;16.80;;;10.00;15.00;;;;;;5092385;28;20456;-73
2021/03/03 10:09:51;;;;;;;18.43;16.83;;;10.10;15.20;;;;;;5092505;28;20864;-73
2021/03/03 10:12:19;;;;;;;21.73;19.43;;;10.10;14.40;;;;;;5092503;28;20411;-73
2021/03/03 10:15:00;;;;;;;18.90;17.30;;;10.30;14.60;;;;;;5091764;28;20410;-72
2021/03/03 10:17:38;;;;;;;19.33;17.57;;;10.40;14.70;;;;;;5092633;28;20400;-71
2021/03/03 10:20:07;;;;;;;17.40;15.90;;;10.60;14.70;;;;;;5091875;28;20479;-72
2021/03/03 10:22:33;;;;;;;21.33;18.67;;;10.80;14.60;;;;;;5092133;28;20976;-72
2021/03/03 10:25:04;;;;;;;20.50;19.07;;;11.00;14.00;;;;;;5092648;28;20429;-73
2021/03/03 10:27:36;;;;;;;21.27;19.10;;;11.10;14.00;;;;;;5092647;28;20462;-73
2021/03/03 10:30:22;;;;;;;21.07;19.30;;;11.30;13.90;;;;;;5093206;28;20416;-72
2021/03/03 10:32:48;;;;;;;21.07;19.00;;;11.40;13.40;;;;;;5092337;28;20413;-73
2021/03/03 10:35:14;;;;;;;22.27;20.60;;;11.60;13.30;;;;;;5073814;28;20426;-73
2021/03/03 10:37:39;;;;;;;20.93;19.33;;;11.70;13.40;;;;;;5092029;28;20278;-74
2021/03/03 10:40:15;;;;;;;22.83;21.13;;;11.90;13.00;;;;;;5090865;28;20760;-73
2021/03/03 10:42:42;;;;;;;19.13;17.30;;;12.00;13.30;;;;;;5073342;28;20200;-73
2021/03/03 10:45:26;;;;;;;23.50;21.50;;;12.10;12.50;;;;;;5094660;28;20502;-74
2021/03/03 10:47:52;;;;;;;19.30;17.90;;;12.20;13.00;;;;;;5094624;28;20952;-74
2021/03/03 10:50:19;;;;;;;23.30;21.30;;;12.40;12.00;;;;;;5091890;28;20416;-73
2021/03/03 10:52:56;;;;;;;20.23;18.80;;;12.50;11.40;;;;;;5092661;28;20484;-74
2021/03/03 10:55:24;;;;;;;23.57;21.20;;;12.60;11.50;;;;;;5093337;28;20411;-74
2021/03/03 10:58:07;;;;;;;23.40;21.30;;;12.80;10.30;;;;;;5074802;28;20464;-73
2021/03/03 11:00:53;;;;;;;21.77;19.83;;;13.00;10.20;;;;;;5090547;28;20412;-74
2021/03/03 11:03:18;;;;;;;21.60;20.10;;;13.20;10.20;;;;;;5092085;28;20435;-74
2021/03/03 11:05:48;;;;;;;20.60;18.70;;;13.30;9.20;;;;;;5091023;28;20416;-74
2021/03/03 11:08:13;;;;;;;23.13;20.63;;;13.50;9.10;;;;;;5090689;28;20543;-73
2021/03/03 11:10:39;;;;;;;26.10;23.50;;;13.60;8.80;;;;;;5090238;28;20615;-74
2021/03/03 11:13:05;;;;;;;23.77;21.40;;;13.70;9.40;;;;;;5091092;28;20643;-74
2021/03/03 11:15:30;;;;;;;22.77;20.90;;;13.90;9.60;;;;;;5090877;28;20172;-74
2021/03/03 11:17:56;;;;;;;24.60;22.50;;;14.10;8.80;;;;;;5103494;22;20195;-74
2021/03/03 11:20:22;;;;;;;24.87;22.63;;;14.20;8.10;;;;;;5075213;28;20279;-74
2021/03/03 11:22:47;;;;;;;24.30;22.27;;;14.30;8.20;;;;;;5093003;28;20176;-74
2021/03/03 11:25:13;;;;;;;28.97;23.00;;;14.30;7.80;;;;;;5074329;28;20647;-74
2021/03/03 11:27:39;;;;;;;24.10;22.00;;;14.40;8.20;;;;;;5092111;28;20197;-74
2021/03/03 11:30:05;;;;;;;24.33;22.33;;;14.40;8.30;;;;;;5093784;28;20495;-73
2021/03/03 11:32:31;;;;;;;24.53;21.93;;;14.50;8.30;;;;;;5076325;28;20170;-75
2021/03/03 11:34:56;;;;;;;24.90;22.57;;;14.40;8.20;;;;;;5074546;28;20422;-72
2021/03/03 11:37:22;;;;;;;25.53;23.43;;;14.40;8.30;;;;;;5094726;28;20191;-73
2021/03/03 11:39:51;;;;;;;33.40;23.53;;;14.50;8.80;;;;;;5081797;28;20714;-73
2021/03/03 11:42:17;;;;;;;23.73;21.90;;;14.60;14.70;;;;;;5108464;28;20640;-73
2021/03/03 11:44:43;;;;;;;25.10;22.77;;;14.60;13.00;;;;;;5100372;28;20782;-73
2021/03/03 11:47:09;;;;;;;24.63;22.63;;;14.60;15.20;;;;;;5075695;28;20463;-73
2021/03/03 11:49:34;;;;;;;25.70;23.13;;;14.60;15.30;;;;;;5092754;28;20199;-74
2021/03/03 11:52:00;;;;;;;22.90;21.10;;;14.60;14.40;;;;;;5092253;28;20172;-74
2021/03/03 11:54:25;;;;;;;24.87;22.97;;;14.70;14.70;;;;;;5091567;28;20177;-74
2021/03/03 11:56:51;;;;;;;25.10;23.00;;;14.80;13.30;;;;;;5073640;28;20180;-75
2021/03/03 11:59:16;;;;;;;22.97;21.47;;;14.80;13.10;;;;;;5091329;28;20268;-75
2021/03/03 12:01:42;;;;;;;24.23;22.23;;;14.80;12.70;;;;;;5074471;28;20222;-74
2021/03/03 12:04:08;;;;;;;25.73;23.40;;;14.80;11.60;;;;;;5095117;28;20179;-74
2021/03/03 12:06:33;;;;;;;24.47;22.50;;;14.80;9.20;;;;;;5094807;28;20265;-74
2021/03/03 12:08:59;;;;;;;24.27;22.17;;;15.00;9.70;;;;;;5076239;28;20283;-74
2021/03/03 12:11:24;;;;;;;24.87;23.07;;;15.10;8.80;;;;;;5094554;28;20184;-74
2021/03/03 12:13:50;;;;;;;23.87;21.93;;;15.20;8.60;;;;;;5094425;28;20185;-74
2021/03/03 12:16:15;;;;;;;25.70;23.43;;;15.30;7.50;;;;;;5094936;28;20181;-72
2021/03/03 12:18:41;;;;;;;29.20;23.40;;;15.30;7.80;;;;;;5076616;28;20223;-74
2021/03/03 12:21:06;;;;;;;24.13;21.93;;;15.40;7.50;;;;;;5077154;28;20196;-75
2021/03/03 12:23:32;;;;;;;24.67;22.67;;;15.50;8.00;;;;;;5097789;28;20188;-73
2021/03/03 12:25:57;;;;;;;22.80;20.97;;;15.50;7.00;;;;;;5098892;28;20178;-75
2021/03/03 12:28:23;;;;;;;23.00;21.33;;;15.50;7.10;;;;;;5099113;28;20213;-73
2021/03/03 12:30:49;;;;;;;23.97;21.80;;;15.50;7.80;;;;;;5104350;28;20176;-72
2021/03/03 12:33:14;;;;;;;24.57;22.37;;;15.50;7.50;;;;;;5088385;28;20184;-74
2021/03/03 12:35:40;;;;;;;23.13;21.63;;;15.60;8.20;;;;;;5112813;28;20223;-74
2021/03/03 12:38:05;;;;;;;24.37;22.17;;;15.60;6.90;;;;;;5114142;28;20204;-73
2021/03/03 12:40:31;;;;;;;29.87;26.67;;;15.60;7.20;;;;;;5094319;28;20247;-74